createdAt,value
2022-11-13T00:03:01.340Z,90.20
2022-11-13T00:06:22.061Z,90.40
2022-11-13T00:09:42.628Z,90.40
2022-11-13T00:13:03.485Z,90.10
2022-11-13T00:16:24.079Z,90.10
2022-11-13T00:19:47.633Z,90.10
2022-11-13T00:23:08.142Z,90.00
2022-11-13T00:26:30.806Z,89.80
2022-11-13T00:29:51.361Z,90.00
2022-11-13T00:33:11.917Z,90.10
2022-11-13T00:36:32.503Z,90.20
2022-11-13T00:39:58.472Z,89.90
2022-11-13T00:43:20.025Z,89.90
2022-11-13T00:46:40.811Z,89.80
2022-11-13T00:50:01.231Z,90.00
2022-11-13T00:53:22.319Z,89.10
2022-11-13T00:56:43.567Z,89.10
2022-11-13T01:00:04.991Z,89.40
2022-11-13T01:03:25.650Z,89.10
2022-11-13T01:06:46.299Z,89.20
2022-11-13T01:10:07.533Z,89.10
2022-11-13T01:13:27.783Z,89.30
2022-11-13T01:16:49.259Z,89.20
2022-11-13T01:20:10.481Z,88.90
2022-11-13T01:23:34.034Z,88.90
2022-11-13T01:26:55.506Z,88.90
2022-11-13T01:30:16.731Z,89.00
2022-11-13T01:33:37.911Z,88.90
2022-11-13T01:36:58.750Z,88.80
2022-11-13T01:40:19.164Z,89.00
2022-11-13T01:43:40.555Z,88.90
2022-11-13T01:47:02.071Z,88.80
2022-11-13T01:50:24.987Z,88.60
2022-11-13T01:53:47.799Z,88.90
2022-11-13T01:57:08.810Z,88.80
2022-11-13T02:00:29.202Z,88.60
2022-11-13T02:03:49.804Z,88.70
2022-11-13T02:07:14.700Z,88.60
2022-11-13T02:10:35.517Z,88.50
2022-11-13T02:13:57.218Z,88.50
2022-11-13T02:17:28.161Z,88.40
2022-11-13T02:21:01.979Z,88.50
2022-11-13T02:24:30.479Z,88.30
2022-11-13T02:27:52.958Z,88.50
2022-11-13T02:31:14.362Z,88.20
2022-11-13T02:34:34.976Z,88.50
2022-11-13T02:37:57.840Z,88.00
2022-11-13T02:41:19.363Z,88.00
2022-11-13T02:44:39.988Z,88.20
2022-11-13T02:48:01.357Z,88.10
2022-11-13T02:51:21.747Z,88.90
2022-11-13T02:54:42.292Z,89.20
2022-11-13T02:58:03.739Z,89.00
2022-11-13T03:01:24.299Z,88.80
2022-11-13T03:05:10.945Z,89.00
2022-11-13T03:08:26.060Z,88.90
2022-11-13T03:11:47.016Z,89.90
2022-11-13T03:15:08.627Z,89.90
2022-11-13T03:18:30.765Z,89.50
2022-11-13T03:21:51.520Z,89.40
2022-11-13T03:25:11.904Z,89.40
2022-11-13T03:28:32.997Z,90.00
2022-11-13T03:31:53.595Z,89.70
2022-11-13T03:35:14.315Z,89.90
2022-11-13T03:38:35.314Z,89.50
2022-11-13T03:41:58.107Z,89.70
2022-11-13T03:45:18.716Z,89.80
2022-11-13T03:48:39.239Z,89.90
2022-11-13T03:51:48.184Z,90.20
2022-11-13T03:55:08.742Z,89.90
2022-11-13T03:58:29.739Z,89.60
2022-11-13T04:01:50.776Z,90.00
2022-11-13T04:05:11.438Z,90.70
2022-11-13T04:08:32.376Z,90.80
2022-11-13T04:11:52.946Z,90.50
2022-11-13T04:15:13.362Z,90.20
2022-11-13T04:18:33.816Z,90.50
2022-11-13T04:21:55.351Z,90.50
2022-11-13T04:25:15.868Z,90.10
2022-11-13T04:28:36.397Z,90.00
2022-11-13T04:31:56.858Z,89.90
2022-11-13T04:35:17.467Z,89.90
2022-11-13T04:38:37.897Z,90.10
2022-11-13T04:41:58.303Z,89.80
2022-11-13T04:45:20.780Z,90.10
2022-11-13T04:48:41.280Z,89.60
2022-11-13T04:52:01.892Z,89.40
2022-11-13T04:55:22.209Z,89.50
2022-11-13T04:58:42.725Z,89.70
2022-11-13T05:02:03.562Z,89.40
2022-11-13T05:05:24.096Z,89.00
2022-11-13T05:08:44.690Z,89.20
2022-11-13T05:12:05.609Z,89.40
2022-11-13T05:15:26.687Z,89.30
2022-11-13T05:18:47.300Z,89.20
2022-11-13T05:22:07.896Z,89.50
2022-11-13T05:25:28.999Z,88.80
2022-11-13T05:28:49.407Z,89.30
2022-11-13T05:32:12.241Z,89.20
2022-11-13T05:35:32.729Z,89.30
2022-11-13T05:38:53.314Z,89.60
2022-11-13T05:42:13.856Z,89.50
2022-11-13T05:45:34.362Z,89.70
2022-11-13T05:49:00.136Z,89.60
2022-11-13T05:52:20.927Z,89.40
2022-11-13T05:55:46.397Z,89.60
2022-11-13T05:59:06.980Z,89.60
2022-11-13T06:02:27.407Z,89.20
2022-11-13T06:05:48.023Z,89.00
2022-11-13T06:09:13.417Z,89.10
2022-11-13T06:12:33.780Z,89.10
2022-11-13T06:15:55.487Z,89.20
2022-11-13T06:19:15.937Z,89.30
2022-11-13T06:22:36.499Z,88.90
2022-11-13T06:26:01.848Z,89.10
2022-11-13T06:29:22.323Z,89.30
2022-11-13T06:32:42.729Z,88.90
2022-11-13T06:36:05.473Z,88.90
2022-11-13T06:39:26.533Z,89.20
2022-11-13T06:42:46.897Z,89.20
2022-11-13T06:46:13.535Z,89.50
2022-11-13T06:49:34.053Z,89.30
2022-11-13T06:52:55.242Z,89.30
2022-11-13T06:56:16.280Z,88.70
2022-11-13T06:59:38.625Z,89.00
2022-11-13T07:02:59.167Z,89.20
2022-11-13T07:06:23.137Z,89.20
2022-11-13T07:09:44.013Z,88.70
2022-11-13T07:13:04.949Z,89.40
2022-11-13T07:16:34.702Z,89.30
2022-11-13T07:20:07.871Z,89.20
2022-11-13T07:23:28.312Z,89.10
2022-11-13T07:26:48.813Z,89.10
2022-11-13T07:30:11.692Z,89.20
2022-11-13T07:33:37.266Z,88.80
2022-11-13T07:36:57.731Z,89.00
2022-11-13T07:40:18.522Z,89.10
2022-11-13T07:43:39.183Z,89.50
2022-11-13T07:47:05.678Z,89.20
2022-11-13T07:50:32.218Z,88.80
2022-11-13T07:53:53.004Z,88.30
2022-11-13T07:57:16.436Z,88.50
2022-11-13T08:00:37.002Z,88.90
2022-11-13T08:03:57.726Z,88.50
2022-11-13T08:07:18.366Z,87.90
2022-11-13T08:10:39.378Z,87.90
2022-11-13T08:14:00.033Z,87.90
2022-11-13T08:17:20.601Z,87.10
2022-11-13T08:20:41.305Z,86.80
2022-11-13T08:24:02.107Z,86.20
2022-11-13T08:27:23.501Z,86.20
2022-11-13T08:30:45.336Z,85.60
2022-11-13T08:34:05.782Z,85.80
2022-11-13T08:37:26.186Z,85.30
2022-11-13T08:40:49.511Z,86.10
2022-11-13T08:44:10.367Z,85.80
2022-11-13T08:47:30.983Z,85.80
2022-11-13T08:50:55.664Z,85.20
2022-11-13T08:54:16.242Z,85.70
2022-11-13T08:57:36.744Z,85.10
2022-11-13T09:01:01.729Z,86.00
2022-11-13T09:04:22.490Z,84.40
2022-11-13T09:07:42.993Z,84.30
2022-11-13T09:11:06.798Z,83.50
2022-11-13T09:14:27.481Z,83.70
2022-11-13T09:17:48.026Z,84.10
2022-11-13T09:21:08.773Z,83.80
2022-11-13T09:24:29.357Z,82.90
2022-11-13T09:27:54.637Z,83.10
2022-11-13T09:31:15.946Z,82.70
2022-11-13T09:34:36.812Z,81.60
2022-11-13T09:37:57.311Z,80.50
2022-11-13T09:41:21.401Z,80.40
2022-11-13T09:44:48.450Z,80.90
2022-11-13T09:48:25.585Z,80.20
2022-11-13T09:51:55.433Z,79.40
2022-11-13T09:55:23.501Z,77.50
2022-11-13T09:58:54.190Z,74.40
2022-11-13T10:02:40.763Z,72.90
2022-11-13T10:06:20.202Z,70.90
2022-11-13T10:10:12.363Z,69.50
2022-11-13T10:13:59.788Z,71.10
2022-11-13T10:17:36.267Z,69.40
2022-11-13T10:21:25.971Z,68.90
2022-11-13T10:24:49.819Z,68.80
2022-11-13T10:28:48.723Z,69.50
2022-11-13T10:32:13.276Z,70.40
2022-11-13T10:35:49.698Z,68.10
2022-11-13T10:39:10.977Z,69.30
2022-11-13T10:42:41.929Z,69.10
2022-11-13T10:46:05.937Z,69.50
2022-11-13T10:49:27.558Z,69.30
2022-11-13T10:52:50.466Z,70.70
2022-11-13T10:56:31.940Z,70.10
2022-11-13T10:59:52.536Z,70.30
2022-11-13T11:03:13.991Z,69.40
2022-11-13T11:10:34.013Z,71.30
2022-11-13T11:14:27.653Z,70.60
2022-11-13T11:17:56.710Z,70.90
2022-11-13T11:21:22.503Z,71.10
2022-11-13T11:25:10.630Z,71.10
2022-11-13T11:28:39.699Z,70.90
2022-11-13T11:32:15.605Z,71.40
2022-11-13T11:35:48.002Z,71.20
2022-11-13T11:39:31.378Z,71.30
2022-11-13T11:43:05.588Z,71.50
2022-11-13T11:46:26.158Z,71.60
2022-11-13T11:49:46.716Z,71.70
2022-11-13T12:03:53.287Z,73.20
2022-11-13T12:07:47.271Z,75.70
2022-11-13T12:11:21.930Z,75.50
2022-11-13T12:15:03.766Z,75.40
2022-11-13T12:18:41.659Z,75.80
2022-11-13T12:22:13.223Z,75.00
2022-11-13T12:25:49.694Z,75.80
2022-11-13T12:29:37.299Z,75.90
2022-11-13T12:33:11.770Z,75.90
2022-11-13T12:40:13.012Z,74.90
2022-11-13T12:43:58.260Z,73.80
2022-11-13T12:47:19.327Z,73.60
2022-11-13T12:50:42.889Z,72.90
2022-11-13T12:54:03.796Z,73.30
2022-11-13T12:57:29.999Z,72.90
2022-11-13T13:01:12.358Z,73.10
2022-11-13T13:05:26.815Z,72.70
2022-11-13T13:09:17.147Z,72.60
2022-11-13T13:12:46.554Z,72.40
2022-11-13T13:16:08.956Z,73.60
2022-11-13T13:19:33.619Z,71.70
2022-11-13T13:22:58.950Z,72.40
2022-11-13T13:26:28.749Z,72.70
2022-11-13T13:29:49.990Z,72.30
2022-11-13T13:33:20.687Z,71.80
2022-11-13T13:37:17.203Z,72.10
2022-11-13T13:41:00.797Z,72.80
2022-11-13T13:44:30.076Z,72.90
2022-11-13T13:47:55.827Z,72.30
2022-11-13T13:51:16.683Z,73.30
2022-11-13T13:54:40.418Z,72.30
2022-11-13T13:58:08.581Z,73.40
2022-11-13T14:01:31.514Z,73.30
2022-11-13T14:04:54.481Z,73.40
2022-11-13T14:08:20.411Z,74.00
2022-11-13T14:11:41.220Z,73.90
2022-11-13T14:15:05.202Z,73.50
2022-11-13T14:18:26.188Z,74.20
2022-11-13T14:21:53.931Z,73.60
2022-11-13T14:25:27.814Z,73.60
2022-11-13T14:29:02.001Z,74.40
2022-11-13T14:32:33.036Z,74.70
2022-11-13T14:35:56.542Z,75.40
2022-11-13T14:39:26.243Z,76.70
2022-11-13T14:42:51.594Z,77.00
2022-11-13T14:46:28.904Z,75.80
2022-11-13T14:49:49.980Z,76.50
2022-11-13T14:53:13.728Z,77.50
2022-11-13T14:56:38.701Z,78.10
2022-11-13T15:00:16.264Z,77.60
2022-11-13T15:03:37.382Z,77.80
2022-11-13T15:06:59.755Z,78.40
2022-11-13T15:10:23.281Z,78.30
2022-11-13T15:13:45.218Z,77.80
2022-11-13T15:17:06.087Z,78.70
2022-11-13T15:20:28.722Z,78.60
2022-11-13T15:23:52.071Z,78.50
2022-11-13T15:27:18.474Z,77.80
2022-11-13T15:30:39.076Z,78.30
2022-11-13T15:33:59.888Z,78.40
2022-11-13T15:37:20.661Z,78.50
2022-11-13T15:40:41.087Z,79.20
2022-11-13T15:44:04.815Z,79.70
2022-11-13T15:47:27.437Z,78.60
2022-11-13T15:50:48.399Z,80.30
2022-11-13T15:54:25.072Z,80.30
2022-11-13T15:57:46.256Z,81.30
2022-11-13T16:01:12.978Z,81.60
2022-11-13T16:04:54.484Z,82.30
2022-11-13T16:08:15.999Z,82.50
2022-11-13T16:11:37.268Z,82.30
2022-11-13T16:18:27.727Z,81.80
2022-11-13T16:21:48.737Z,82.50
2022-11-13T16:25:21.166Z,82.70
2022-11-13T16:32:23.190Z,83.20
2022-11-13T16:35:48.254Z,83.80
2022-11-13T16:39:15.572Z,83.70
2022-11-13T16:42:36.162Z,83.60
2022-11-13T16:46:00.144Z,83.90
2022-11-13T16:49:21.038Z,83.80
2022-11-13T16:52:45.008Z,84.00
2022-11-13T16:56:13.265Z,84.30
2022-11-13T16:59:35.600Z,85.20
2022-11-13T17:02:56.273Z,84.60
2022-11-13T17:06:28.365Z,84.10
2022-11-13T17:09:58.901Z,85.40
2022-11-13T17:13:30.208Z,84.50
2022-11-13T17:16:50.864Z,84.30
2022-11-13T17:20:12.268Z,84.20
2022-11-13T17:23:33.123Z,84.40
2022-11-13T17:26:53.604Z,84.30
2022-11-13T17:30:14.650Z,84.20
2022-11-13T17:33:35.347Z,84.40
2022-11-13T17:36:56.164Z,84.70
2022-11-13T17:40:17.206Z,84.60
2022-11-13T17:43:40.514Z,85.20
2022-11-13T17:47:01.171Z,85.30
2022-11-13T17:50:24.693Z,84.80
2022-11-13T17:53:45.412Z,84.40
2022-11-13T17:57:06.484Z,85.10
2022-11-13T18:00:27.458Z,84.80
2022-11-13T18:03:54.143Z,84.90
2022-11-13T18:07:15.424Z,84.60
2022-11-13T18:10:39.243Z,84.50
2022-11-13T18:14:02.188Z,84.50
2022-11-13T18:17:23.437Z,85.30
2022-11-13T18:20:44.437Z,85.60
2022-11-13T18:24:06.427Z,86.10
2022-11-13T18:27:26.923Z,86.50
2022-11-13T18:30:51.954Z,86.40
2022-11-13T18:34:17.594Z,86.60
2022-11-13T18:37:38.066Z,87.00
2022-11-13T18:41:07.890Z,87.20
2022-11-13T18:44:28.654Z,87.60
2022-11-13T18:47:37.048Z,87.10
2022-11-13T18:51:02.589Z,87.20
2022-11-13T18:54:22.924Z,87.30
2022-11-13T18:57:43.494Z,87.50
2022-11-13T19:01:20.469Z,87.50
2022-11-13T19:04:42.990Z,87.30
2022-11-13T19:08:03.960Z,87.70
2022-11-13T19:11:25.636Z,87.60
2022-11-13T19:14:48.014Z,87.00
2022-11-13T19:18:08.796Z,87.30
2022-11-13T19:21:33.548Z,87.50
2022-11-13T19:24:54.367Z,86.90
2022-11-13T19:28:15.108Z,87.20
2022-11-13T19:31:35.769Z,87.00
2022-11-13T19:34:57.051Z,86.90
2022-11-13T19:38:17.872Z,86.70
2022-11-13T19:41:41.024Z,86.30
2022-11-13T19:45:01.715Z,86.70
2022-11-13T19:48:22.264Z,86.50
2022-11-13T19:51:42.758Z,86.40
2022-11-13T19:55:14.261Z,86.60
2022-11-13T19:58:37.847Z,86.70
2022-11-13T20:01:59.169Z,86.40
2022-11-13T20:05:19.715Z,86.40
2022-11-13T20:08:40.796Z,86.20
2022-11-13T20:12:01.322Z,86.50
2022-11-13T20:15:23.097Z,86.10
2022-11-13T20:18:44.882Z,86.00
2022-11-13T20:22:05.552Z,86.10
2022-11-13T20:25:26.187Z,85.90
2022-11-13T20:28:46.920Z,86.00
2022-11-13T20:32:07.399Z,86.20
2022-11-13T20:35:27.887Z,86.10
2022-11-13T20:38:54.278Z,85.80
2022-11-13T20:42:14.856Z,85.90
2022-11-13T20:45:35.467Z,85.80
2022-11-13T20:48:56.258Z,85.80
2022-11-13T20:52:17.149Z,85.60
2022-11-13T20:55:37.761Z,85.80
2022-11-13T20:58:58.469Z,85.60
2022-11-13T21:02:19.067Z,85.70
2022-11-13T21:05:39.478Z,85.60
2022-11-13T21:08:59.995Z,85.50
2022-11-13T21:12:24.169Z,85.50
2022-11-13T21:15:44.761Z,85.70
2022-11-13T21:19:05.481Z,85.30
2022-11-13T21:22:26.146Z,85.80
2022-11-13T21:25:58.888Z,85.40
2022-11-13T21:29:20.756Z,85.20
2022-11-13T21:32:42.845Z,85.50
2022-11-13T21:36:11.623Z,85.10
2022-11-13T21:39:32.263Z,85.00
2022-11-13T21:42:52.662Z,84.80
2022-11-13T21:46:13.101Z,85.00
2022-11-13T21:49:36.397Z,84.80
2022-11-13T21:52:57.206Z,85.20
2022-11-13T21:56:17.583Z,84.50
2022-11-13T21:59:38.153Z,84.80
2022-11-13T22:02:58.646Z,84.70
2022-11-13T22:06:40.619Z,84.60
2022-11-13T22:10:08.318Z,84.50
2022-11-13T22:13:38.215Z,84.20
2022-11-13T22:16:58.711Z,84.60
2022-11-13T22:20:19.287Z,84.70
2022-11-13T22:23:40.062Z,84.40
2022-11-13T22:27:00.975Z,84.60
2022-11-13T22:30:21.868Z,84.40
2022-11-13T22:33:47.785Z,84.50
2022-11-13T22:37:10.470Z,84.50
2022-11-13T22:40:33.264Z,84.50
2022-11-13T22:44:05.977Z,84.30
2022-11-13T22:47:26.486Z,84.00
2022-11-13T22:50:47.086Z,84.00
2022-11-13T22:54:09.976Z,84.10
2022-11-13T22:57:31.722Z,84.00
2022-11-13T23:00:52.457Z,84.50
2022-11-13T23:04:13.723Z,84.20
2022-11-13T23:07:34.378Z,83.80
2022-11-13T23:10:55.324Z,83.60
2022-11-13T23:14:15.762Z,84.10
2022-11-13T23:17:36.523Z,83.50
2022-11-13T23:20:57.204Z,83.70
2022-11-13T23:24:17.777Z,84.00
2022-11-13T23:27:38.512Z,83.90
2022-11-13T23:30:59.330Z,83.80
2022-11-13T23:34:38.411Z,83.70
2022-11-13T23:38:00.788Z,84.10
2022-11-13T23:41:22.562Z,84.50
2022-11-13T23:44:43.545Z,84.20
2022-11-13T23:48:04.893Z,84.00
2022-11-13T23:51:25.840Z,84.20
2022-11-13T23:54:46.504Z,84.10
2022-11-13T23:58:13.099Z,83.90
